createdAt,value
2018-12-07T17:58:56.472Z,12.57
2018-12-07T18:01:23.995Z,11.87
2018-12-07T18:03:51.266Z,10.83
2018-12-07T18:06:18.671Z,9.03
2018-12-07T18:08:46.023Z,8.27
2018-12-07T18:11:13.629Z,8.93
2018-12-07T18:13:41.340Z,9.93
2018-12-07T18:16:09.031Z,10.60
2018-12-07T18:18:36.513Z,9.90
2018-12-07T18:21:03.926Z,10.70
2018-12-07T18:23:31.458Z,9.00
2018-12-07T18:25:59.188Z,9.47
2018-12-07T18:31:00.611Z,8.50
2018-12-07T18:33:28.050Z,7.83
2018-12-07T18:35:55.469Z,8.67
2018-12-07T18:38:22.965Z,9.13
2018-12-07T18:40:50.339Z,9.83
2018-12-07T18:43:17.633Z,10.43
2018-12-07T18:45:45.001Z,12.47
2018-12-07T18:48:12.508Z,11.30
2018-12-07T18:50:39.906Z,11.20
2018-12-07T18:53:07.425Z,10.77
2018-12-07T18:55:34.945Z,11.63
2018-12-07T18:58:02.653Z,12.70
2018-12-07T19:00:30.147Z,12.73
2018-12-07T19:02:57.505Z,11.67
2018-12-07T19:05:24.846Z,11.70
2018-12-07T19:07:52.284Z,11.87
2018-12-07T19:10:19.843Z,11.10
2018-12-07T19:12:47.241Z,11.60
2018-12-07T19:15:14.834Z,11.70
2018-12-07T19:17:42.360Z,12.40
2018-12-07T19:20:09.817Z,12.97
2018-12-07T19:22:37.337Z,13.13
2018-12-07T19:25:05.887Z,14.27
2018-12-07T19:27:33.409Z,14.80
2018-12-07T19:30:00.774Z,14.83
2018-12-07T19:32:28.397Z,15.90
2018-12-07T19:34:55.733Z,15.13
2018-12-07T19:37:23.218Z,14.23
2018-12-07T19:39:50.774Z,12.13
2018-12-07T19:42:18.253Z,12.90
2018-12-07T19:44:45.645Z,14.87
2018-12-07T19:47:13.171Z,15.37
2018-12-07T19:49:40.796Z,14.93
2018-12-07T19:52:08.241Z,14.30
2018-12-07T19:54:35.712Z,13.03
2018-12-07T19:57:03.518Z,13.30
2018-12-07T19:59:31.119Z,13.20
2018-12-07T20:01:58.481Z,13.43
2018-12-07T20:04:25.989Z,13.50
2018-12-07T20:06:53.430Z,14.00
2018-12-07T20:09:20.990Z,14.23
2018-12-07T20:11:48.274Z,15.53
2018-12-07T20:14:15.789Z,15.80
2018-12-07T20:16:43.595Z,16.20
2018-12-07T20:19:10.924Z,14.23
2018-12-07T20:21:38.194Z,16.13
2018-12-07T20:24:05.682Z,14.50
2018-12-07T20:26:33.183Z,15.97
2018-12-07T20:29:00.612Z,15.40
2018-12-07T20:31:28.286Z,15.33
2018-12-07T20:33:55.687Z,14.43
2018-12-07T20:36:22.988Z,14.97
2018-12-07T20:38:50.573Z,14.60
2018-12-07T20:41:17.922Z,15.50
2018-12-07T20:43:45.446Z,16.43
2018-12-07T20:46:12.874Z,15.67
2018-12-07T20:48:40.258Z,15.90
2018-12-07T20:51:07.650Z,17.57
2018-12-07T20:53:35.013Z,16.30
2018-12-07T20:56:03.115Z,16.43
2018-12-07T20:58:30.373Z,17.00
2018-12-07T21:00:59.382Z,17.33
2018-12-07T21:04:19.481Z,16.63
2018-12-07T21:07:20.481Z,15.73
2018-12-07T21:09:47.856Z,15.57
2018-12-07T21:12:40.336Z,15.03
2018-12-07T21:15:07.817Z,14.03
2018-12-07T21:17:36.811Z,13.80
2018-12-07T21:20:16.764Z,13.50
2018-12-07T21:22:44.477Z,12.90
2018-12-07T21:25:12.083Z,12.43
2018-12-07T21:27:39.415Z,11.60
2018-12-07T21:31:13.705Z,11.00
2018-12-07T21:36:29.456Z,11.33
2018-12-07T21:38:56.917Z,11.73
2018-12-07T21:41:24.391Z,11.23
2018-12-07T21:43:51.937Z,12.80
2018-12-07T21:46:19.328Z,12.10
2018-12-07T21:48:46.659Z,12.03
2018-12-07T21:51:23.391Z,11.57
2018-12-07T21:53:51.052Z,12.87
2018-12-07T21:56:18.568Z,11.80
2018-12-07T21:58:45.874Z,12.17
2018-12-07T22:01:13.457Z,11.33
2018-12-07T22:03:40.883Z,11.67
2018-12-07T22:06:08.482Z,12.20
2018-12-07T22:08:36.124Z,11.80
2018-12-07T22:11:03.994Z,12.27
2018-12-07T22:13:31.448Z,11.63
2018-12-07T22:15:58.724Z,12.17
2018-12-07T22:18:25.971Z,12.27
2018-12-07T22:20:53.555Z,12.10
2018-12-07T22:23:21.068Z,11.90
2018-12-07T22:25:48.634Z,12.33
2018-12-07T22:28:16.071Z,11.73
2018-12-07T22:30:43.592Z,10.80
2018-12-07T22:33:11.065Z,11.63
2018-12-07T22:35:38.614Z,11.00
2018-12-07T22:38:06.317Z,12.03
2018-12-07T22:40:33.692Z,10.93
2018-12-07T22:43:01.104Z,10.10
2018-12-07T22:45:28.466Z,10.73
2018-12-07T22:47:55.971Z,10.40
2018-12-07T22:50:23.354Z,10.60
2018-12-07T22:52:50.689Z,10.63
2018-12-07T22:55:18.050Z,9.90
2018-12-07T22:57:45.387Z,10.40
2018-12-07T23:00:18.405Z,10.10
2018-12-07T23:02:46.173Z,10.07
2018-12-07T23:05:17.079Z,9.93
2018-12-07T23:07:44.530Z,10.47
2018-12-07T23:10:11.931Z,10.17
2018-12-07T23:12:39.201Z,10.37
2018-12-07T23:15:07.252Z,10.87
2018-12-07T23:17:38.818Z,10.40
2018-12-07T23:20:07.258Z,10.43
2018-12-07T23:22:34.657Z,10.70
2018-12-07T23:25:02.055Z,9.57
2018-12-07T23:27:29.297Z,9.73
2018-12-07T23:29:56.537Z,9.80
2018-12-07T23:32:23.875Z,9.60
2018-12-07T23:34:51.156Z,10.27
2018-12-07T23:37:18.384Z,10.03
2018-12-07T23:39:45.868Z,10.27
2018-12-07T23:42:13.341Z,9.53
2018-12-07T23:44:40.682Z,10.00
2018-12-07T23:47:08.222Z,9.20
2018-12-07T23:49:35.611Z,8.83
2018-12-07T23:52:02.968Z,8.97
2018-12-07T23:54:30.269Z,9.13
2018-12-07T23:56:57.665Z,8.33
2018-12-07T23:59:24.865Z,8.17
